Time;durP1;ratioP1;P1;durP2;ratioP2;P2;SDS_P1;SDS_P2;PMS_P1;PMS_P2;Temp;Humidity;BMP_temperature;BMP_pressure;BME280_temperature;BME280_humidity;BME280_pressure;Samples;Min_cycle;Max_cycle;Signal;HPM_P1;HPM_P2
2021/04/27 00:02:30;;;;;;;15.48;7.28;;;18.20;64.20;;;;;;6172553;28;20054;-82
2021/04/27 00:05:33;;;;;;;11.95;7.10;;;18.20;64.20;;;;;;6121120;28;20039;-81
2021/04/27 00:08:34;;;;;;;16.52;7.38;;;18.30;64.10;;;;;;6121863;29;20032;-81
2021/04/27 00:11:35;;;;;;;16.65;7.65;;;18.30;64.80;;;;;;6154238;29;20110;-81
2021/04/27 00:14:37;;;;;;;13.95;7.32;;;18.40;63.90;;;;;;6154476;29;20050;-81
2021/04/27 00:17:38;;;;;;;10.95;6.57;;;18.40;63.80;;;;;;6117200;29;20038;-80
2021/04/27 00:20:39;;;;;;;15.35;7.95;;;18.40;63.70;;;;;;6136897;29;20162;-81
2021/04/27 00:23:40;;;;;;;16.80;7.68;;;18.40;63.80;;;;;;6137111;29;20023;-80
2021/04/27 00:26:42;;;;;;;15.75;7.82;;;18.40;63.70;;;;;;6120913;29;20085;-81
2021/04/27 00:29:43;;;;;;;17.70;8.95;;;18.40;63.70;;;;;;6136832;29;20049;-81
2021/04/27 00:32:45;;;;;;;13.15;7.18;;;18.40;63.70;;;;;;6136852;29;20031;-81
2021/04/27 00:35:46;;;;;;;14.00;6.82;;;18.40;63.70;;;;;;6136711;29;20038;-80
2021/04/27 00:38:47;;;;;;;12.60;6.50;;;18.40;63.70;;;;;;6152705;29;20035;-80
2021/04/27 00:41:48;;;;;;;13.80;7.80;;;18.40;63.80;;;;;;6152418;29;20019;-80
2021/04/27 00:44:49;;;;;;;15.80;7.40;;;18.40;63.80;;;;;;6155259;29;20427;-81
2021/04/27 00:47:52;;;;;;;13.63;7.13;;;18.40;63.80;;;;;;6152873;29;20041;-80
2021/04/27 00:50:54;;;;;;;16.13;7.28;;;18.40;64.00;;;;;;6136337;29;20478;-80
2021/04/27 00:53:55;;;;;;;12.85;7.28;;;18.30;64.00;;;;;;6137212;29;20074;-80
2021/04/27 00:56:56;;;;;;;15.05;7.53;;;18.30;64.20;;;;;;6135840;29;20054;-81
2021/04/27 00:59:58;;;;;;;14.32;7.65;;;18.20;64.40;;;;;;6136300;29;20454;-80
2021/04/27 01:03:00;;;;;;;16.23;7.82;;;18.20;64.50;;;;;;6138231;29;20027;-81
2021/04/27 01:06:01;;;;;;;13.27;7.55;;;18.20;64.60;;;;;;6156934;29;20038;-80
2021/04/27 01:09:03;;;;;;;14.80;7.32;;;18.20;64.70;;;;;;6159981;29;20063;-80
2021/04/27 01:12:20;;;;;;;10.98;6.10;;;18.20;64.70;;;;;;6122505;29;20031;-81
2021/04/27 01:15:25;;;;;;;14.93;6.38;;;18.10;64.80;;;;;;6137841;28;20122;-80
2021/04/27 01:18:26;;;;;;;18.60;6.47;;;18.10;65.00;;;;;;6141471;29;20043;-80
2021/04/27 01:21:30;;;;;;;21.38;5.53;;;18.00;65.10;;;;;;6143613;29;20370;-80
2021/04/27 01:24:35;;;;;;;11.05;4.88;;;17.90;65.20;;;;;;6157300;29;20086;-81
2021/04/27 01:27:39;;;;;;;9.43;4.85;;;17.90;65.40;;;;;;6143658;29;20028;-81
2021/04/27 01:30:41;;;;;;;9.52;5.30;;;17.80;65.40;;;;;;6141577;29;20454;-80
2021/04/27 01:33:46;;;;;;;11.27;5.63;;;17.80;65.60;;;;;;6157291;29;20031;-80
2021/04/27 01:36:50;;;;;;;12.93;5.45;;;17.80;65.70;;;;;;6141509;29;20035;-80
2021/04/27 01:39:52;;;;;;;10.93;5.47;;;17.70;65.70;;;;;;6141174;29;20530;-80
2021/04/27 01:42:55;;;;;;;16.65;5.75;;;17.70;65.70;;;;;;6141985;29;20027;-80
2021/04/27 01:46:05;;;;;;;21.17;6.45;;;17.70;65.70;;;;;;6141661;29;20035;-82
2021/04/27 01:49:08;;;;;;;10.48;6.25;;;17.80;65.70;;;;;;6157430;29;20086;-82
2021/04/27 01:52:20;;;;;;;12.13;6.03;;;17.80;65.60;;;;;;6157679;29;20351;-82
2021/04/27 01:55:27;;;;;;;12.95;5.88;;;17.90;65.60;;;;;;6158737;29;20031;-81
2021/04/27 01:58:29;;;;;;;9.00;5.82;;;17.90;65.50;;;;;;6134217;29;20040;-81
2021/04/27 02:01:32;;;;;;;12.10;6.13;;;17.90;65.30;;;;;;6101823;29;20095;-82
2021/04/27 02:04:34;;;;;;;16.77;6.03;;;18.00;65.30;;;;;;6130228;29;20028;-81
2021/04/27 02:08:01;;;;;;;10.50;5.40;;;18.00;65.30;;;;;;6109835;29;20036;-80
2021/04/27 02:11:07;;;;;;;13.60;5.07;;;17.90;65.40;;;;;;6129415;29;20435;-80
2021/04/27 02:14:11;;;;;;;11.68;5.75;;;18.00;65.50;;;;;;6107808;29;20036;-80
2021/04/27 02:17:37;;;;;;;12.95;5.35;;;18.00;65.50;;;;;;6107851;29;20072;-79
2021/04/27 02:20:40;;;;;;;15.07;5.45;;;17.90;65.50;;;;;;6108009;29;20042;-79
2021/04/27 02:24:18;;;;;;;13.93;6.00;;;18.00;65.40;;;;;;6129109;29;20087;-81
2021/04/27 02:27:23;;;;;;;11.98;5.93;;;18.00;65.30;;;;;;6129025;29;20055;-81
2021/04/27 02:30:25;;;;;;;11.07;5.80;;;18.00;65.30;;;;;;6129613;29;20566;-81
2021/04/27 02:33:27;;;;;;;13.25;5.88;;;17.90;65.20;;;;;;6129415;29;20040;-80
2021/04/27 02:36:28;;;;;;;11.10;5.97;;;17.90;65.10;;;;;;6113437;29;20470;-80
2021/04/27 02:39:38;;;;;;;14.40;5.80;;;18.00;65.30;;;;;;6098739;29;20099;-80
2021/04/27 02:42:40;;;;;;;12.32;6.60;;;18.00;65.20;;;;;;6110215;29;20063;-80
2021/04/27 02:45:41;;;;;;;11.48;6.40;;;18.00;65.20;;;;;;6106327;29;20181;-80
2021/04/27 02:49:07;;;;;;;14.77;6.72;;;18.00;65.10;;;;;;6110508;29;20048;-80
2021/04/27 02:52:12;;;;;;;16.13;6.07;;;18.00;65.10;;;;;;6111449;29;20048;-80
2021/04/27 02:55:27;;;;;;;11.98;6.32;;;18.00;65.20;;;;;;6108739;29;20047;-80
2021/04/27 02:58:28;;;;;;;17.55;6.32;;;18.00;65.30;;;;;;6081319;29;946924;-80
2021/04/27 03:01:35;;;;;;;13.05;7.50;;;18.00;65.30;;;;;;6161027;29;20043;-80
2021/04/27 03:04:40;;;;;;;16.42;7.68;;;18.00;65.50;;;;;;6145957;29;20111;-80
2021/04/27 03:07:52;;;;;;;13.48;6.60;;;18.00;65.60;;;;;;6158236;29;20040;-81
2021/04/27 03:10:54;;;;;;;12.90;6.63;;;17.90;65.60;;;;;;6150125;29;20032;-81
2021/04/27 03:13:56;;;;;;;16.35;7.00;;;18.00;65.80;;;;;;6134740;29;20035;-81
2021/04/27 03:16:57;;;;;;;15.88;6.82;;;18.00;65.80;;;;;;6132266;29;20471;-81
2021/04/27 03:19:59;;;;;;;13.52;7.40;;;17.90;65.80;;;;;;6132194;29;20126;-81
2021/04/27 03:23:11;;;;;;;13.25;7.72;;;17.90;65.80;;;;;;6132620;29;20032;-81
2021/04/27 03:26:13;;;;;;;14.52;7.47;;;17.90;65.90;;;;;;6131453;29;20032;-81
2021/04/27 03:29:30;;;;;;;14.70;7.30;;;17.90;65.90;;;;;;6131148;29;20028;-80
2021/04/27 03:32:36;;;;;;;14.20;6.57;;;17.90;66.00;;;;;;6131601;29;20474;-81
2021/04/27 03:35:40;;;;;;;12.18;6.20;;;17.90;65.90;;;;;;6131417;29;20036;-79
2021/04/27 03:38:42;;;;;;;8.88;5.75;;;17.90;66.00;;;;;;6131435;29;20063;-80
2021/04/27 03:41:43;;;;;;;10.10;4.78;;;17.80;65.90;;;;;;6132211;29;20031;-79
2021/04/27 03:44:46;;;;;;;12.63;5.57;;;17.80;65.90;;;;;;6147435;29;20237;-79
2021/04/27 03:47:49;;;;;;;9.75;5.40;;;17.80;66.00;;;;;;6147345;29;20036;-79
2021/04/27 03:50:51;;;;;;;13.55;5.53;;;17.80;66.10;;;;;;6146316;29;20101;-82
2021/04/27 03:54:10;;;;;;;10.20;5.78;;;17.70;66.20;;;;;;6131592;29;20050;-80
2021/04/27 03:57:14;;;;;;;10.95;5.43;;;17.70;66.30;;;;;;6116909;29;20051;-83
2021/04/27 04:00:31;;;;;;;11.32;5.55;;;17.70;66.40;;;;;;6106744;29;20099;-80
2021/04/27 04:03:41;;;;;;;9.57;5.43;;;17.70;66.50;;;;;;6103489;29;20056;-81
2021/04/27 04:06:44;;;;;;;11.20;5.18;;;17.70;66.40;;;;;;6106704;29;20032;-81
2021/04/27 04:09:51;;;;;;;14.98;5.60;;;17.80;66.40;;;;;;6106884;29;20040;-79
2021/04/27 04:12:58;;;;;;;18.17;7.15;;;17.80;66.20;;;;;;6122294;29;20069;-82
2021/04/27 04:16:00;;;;;;;14.25;6.13;;;17.70;66.20;;;;;;6110555;29;20043;-80
2021/04/27 04:19:01;;;;;;;14.38;5.57;;;17.70;66.20;;;;;;6109875;29;20059;-80
2021/04/27 04:26:25;;;;;;;13.55;6.38;;;17.70;66.40;;;;;;6110724;29;20041;-80
2021/04/27 04:29:45;;;;;;;11.30;5.70;;;17.80;66.40;;;;;;6107259;29;20044;-79
2021/04/27 04:33:20;;;;;;;13.52;6.53;;;17.80;66.40;;;;;;6058373;29;20500;-80
2021/04/27 04:36:48;;;;;;;11.57;6.70;;;17.70;66.30;;;;;;6052300;29;20056;-81
2021/04/27 04:40:22;;;;;;;17.90;6.40;;;17.80;66.30;;;;;;6015842;29;20045;-80
2021/04/27 04:43:42;;;;;;;18.40;6.38;;;17.80;66.30;;;;;;6017499;29;20175;-80
2021/04/27 04:47:02;;;;;;;15.43;6.38;;;17.80;67.00;;;;;;6015943;29;20045;-81
2021/04/27 04:50:12;;;;;;;12.30;6.05;;;17.80;66.10;;;;;;6012224;29;20034;-80
2021/04/27 04:53:31;;;;;;;16.77;6.20;;;17.80;66.00;;;;;;6014605;29;20461;-82
2021/04/27 04:56:33;;;;;;;14.43;7.10;;;17.90;66.00;;;;;;6019251;29;20457;-80
2021/04/27 04:59:35;;;;;;;14.35;7.55;;;17.90;65.90;;;;;;6036939;29;20093;-80
2021/04/27 05:02:40;;;;;;;16.27;7.53;;;17.90;65.80;;;;;;6036863;29;20046;-84
2021/04/27 05:06:02;;;;;;;13.20;7.18;;;17.90;65.70;;;;;;5989711;29;20050;-79
2021/04/27 05:09:35;;;;;;;14.57;7.13;;;17.90;65.70;;;;;;5893543;29;20040;-82
2021/04/27 05:12:42;;;;;;;23.88;7.90;;;18.00;66.00;;;;;;5899306;30;20109;-81
2021/04/27 05:15:47;;;;;;;15.93;7.50;;;17.90;66.80;;;;;;5944860;29;20053;-82
2021/04/27 05:18:48;;;;;;;20.02;7.50;;;18.00;65.90;;;;;;5990104;29;20043;-82
2021/04/27 05:21:50;;;;;;;12.65;6.20;;;18.00;66.00;;;;;;5997924;29;20062;-82
2021/04/27 05:24:52;;;;;;;16.27;7.35;;;18.00;66.90;;;;;;5966756;29;20057;-82
2021/04/27 05:27:58;;;;;;;14.60;7.80;;;18.00;66.00;;;;;;5981447;29;20348;-82
2021/04/27 05:31:00;;;;;;;14.65;7.15;;;18.00;66.00;;;;;;5969174;29;20100;-83
2021/04/27 05:34:01;;;;;;;14.52;7.03;;;18.10;66.00;;;;;;5966436;29;20042;-81
2021/04/27 05:37:03;;;;;;;16.40;6.97;;;18.10;65.90;;;;;;5967955;29;20077;-86
2021/04/27 05:40:05;;;;;;;17.45;7.47;;;18.20;65.80;;;;;;5966750;29;20066;-83
2021/04/27 05:43:07;;;;;;;15.40;7.40;;;18.20;65.70;;;;;;6002379;29;20132;-84
2021/04/27 05:46:08;;;;;;;18.33;7.38;;;18.20;65.60;;;;;;6129864;29;20052;-83
2021/04/27 05:49:12;;;;;;;19.08;7.90;;;18.30;65.50;;;;;;6136030;29;20036;-84
2021/04/27 05:52:13;;;;;;;14.13;7.10;;;18.30;65.40;;;;;;6105721;29;20039;-83
2021/04/27 05:55:18;;;;;;;15.30;6.95;;;18.40;65.30;;;;;;6105333;29;20020;-84
2021/04/27 05:58:20;;;;;;;15.43;7.60;;;18.40;65.10;;;;;;6120349;29;20067;-84
2021/04/27 06:01:22;;;;;;;16.77;6.90;;;18.40;64.90;;;;;;6136985;29;20028;-84
2021/04/27 06:04:24;;;;;;;16.70;7.40;;;18.40;64.90;;;;;;6141178;29;20028;-84
2021/04/27 06:07:25;;;;;;;13.80;6.15;;;18.40;64.90;;;;;;6102814;29;20040;-83
2021/04/27 06:10:26;;;;;;;15.13;7.28;;;18.50;64.90;;;;;;6110212;29;20028;-84
2021/04/27 06:13:27;;;;;;;18.27;7.20;;;18.40;64.80;;;;;;6109344;29;20024;-82
2021/04/27 06:16:28;;;;;;;20.10;8.00;;;18.50;64.70;;;;;;6140795;29;20475;-82
2021/04/27 06:19:29;;;;;;;17.20;7.78;;;18.50;64.70;;;;;;6139549;29;20084;-83
2021/04/27 06:22:30;;;;;;;17.40;9.05;;;18.50;64.70;;;;;;6108484;29;20028;-84
2021/04/27 06:25:33;;;;;;;18.55;8.75;;;18.50;64.70;;;;;;6094148;29;20040;-84
2021/04/27 06:28:36;;;;;;;20.50;8.75;;;18.50;64.70;;;;;;6128520;29;20032;-83
2021/04/27 06:31:38;;;;;;;24.83;9.85;;;18.40;64.80;;;;;;6109861;29;20163;-86
2021/04/27 06:39:04;;;;;;;14.63;8.25;;;18.40;65.00;;;;;;6104690;29;20040;-86
2021/04/27 06:42:07;;;;;;;17.00;8.65;;;18.30;64.90;;;;;;6108854;29;20379;-86
2021/04/27 06:45:09;;;;;;;31.85;10.55;;;18.40;65.00;;;;;;6110942;29;20086;-86
2021/04/27 06:48:11;;;;;;;18.65;9.70;;;18.40;65.00;;;;;;6092494;29;20468;-85
2021/04/27 06:51:17;;;;;;;18.92;9.05;;;18.40;65.00;;;;;;6108571;29;20040;-88
2021/04/27 06:54:20;;;;;;;24.67;10.25;;;18.50;64.80;;;;;;6094504;29;20333;-84
2021/04/27 06:57:25;;;;;;;19.90;8.77;;;18.50;64.70;;;;;;6139826;28;20044;-86
2021/04/27 07:00:28;;;;;;;29.60;9.38;;;18.60;64.60;;;;;;6141070;29;20190;-86
2021/04/27 07:03:29;;;;;;;15.55;8.80;;;18.60;64.40;;;;;;6124085;29;20452;-84
2021/04/27 07:06:30;;;;;;;28.92;9.40;;;18.70;64.20;;;;;;6140080;29;20111;-84
2021/04/27 07:09:32;;;;;;;19.67;8.85;;;18.80;63.90;;;;;;6139351;29;20033;-84
2021/04/27 07:12:33;;;;;;;25.13;8.95;;;18.80;63.70;;;;;;6107683;29;20032;-85
2021/04/27 07:15:34;;;;;;;29.92;8.75;;;18.80;63.60;;;;;;6106842;29;20148;-85
2021/04/27 07:18:35;;;;;;;17.45;8.07;;;18.80;63.50;;;;;;6101344;29;20205;-84
2021/04/27 07:21:39;;;;;;;23.35;8.82;;;18.80;63.60;;;;;;6108758;29;20111;-84
2021/04/27 07:24:40;;;;;;;19.65;9.43;;;18.90;63.50;;;;;;6112353;29;20108;-84
2021/04/27 07:27:42;;;;;;;25.52;9.05;;;18.90;63.40;;;;;;6115209;29;20059;-86
2021/04/27 07:30:44;;;;;;;30.98;10.55;;;19.00;63.30;;;;;;6108377;29;20043;-82
2021/04/27 07:33:46;;;;;;;22.10;9.15;;;19.10;63.10;;;;;;6108377;29;20028;-86
2021/04/27 07:36:48;;;;;;;18.10;9.00;;;19.20;62.80;;;;;;6142304;29;20032;-82
2021/04/27 07:39:51;;;;;;;18.67;9.38;;;19.30;62.50;;;;;;6092408;29;20043;-83
2021/04/27 07:42:53;;;;;;;23.92;8.82;;;19.40;62.20;;;;;;6108579;29;20107;-84
2021/04/27 07:45:54;;;;;;;27.20;9.90;;;19.50;61.90;;;;;;6109904;29;20032;-84
2021/04/27 07:48:56;;;;;;;25.08;8.93;;;19.60;61.40;;;;;;6109059;29;20032;-85
2021/04/27 07:51:58;;;;;;;22.63;9.13;;;19.60;61.10;;;;;;6153442;29;20047;-83
2021/04/27 07:54:59;;;;;;;15.57;7.50;;;19.70;61.10;;;;;;6124120;29;20047;-83
2021/04/27 07:58:01;;;;;;;18.35;8.65;;;19.70;60.80;;;;;;6118744;29;20059;-84
2021/04/27 08:01:04;;;;;;;21.55;9.35;;;19.90;60.60;;;;;;6133174;29;20111;-85
2021/04/27 08:04:06;;;;;;;25.83;9.40;;;20.00;60.20;;;;;;6141813;29;20028;-86
2021/04/27 08:07:08;;;;;;;18.35;8.25;;;20.10;59.70;;;;;;6125631;29;20043;-84
2021/04/27 08:10:13;;;;;;;26.35;9.98;;;20.10;59.40;;;;;;6115384;29;20040;-85
2021/04/27 08:13:14;;;;;;;20.05;7.97;;;20.20;59.30;;;;;;6124959;29;20031;-85
2021/04/27 08:16:16;;;;;;;20.88;8.77;;;20.20;59.10;;;;;;6109052;29;20086;-84
2021/04/27 08:19:17;;;;;;;17.17;8.27;;;20.30;58.90;;;;;;6136174;29;20099;-84
2021/04/27 08:22:19;;;;;;;17.52;8.80;;;20.40;58.60;;;;;;6141891;29;20116;-84
2021/04/27 08:25:20;;;;;;;19.50;8.27;;;20.50;58.50;;;;;;6111665;29;20061;-84
2021/04/27 08:28:23;;;;;;;19.52;8.25;;;20.50;58.00;;;;;;6126424;29;20024;-85
2021/04/27 08:31:25;;;;;;;16.75;8.32;;;20.60;57.80;;;;;;6141012;29;20028;-85
2021/04/27 08:34:27;;;;;;;16.98;8.20;;;20.70;57.70;;;;;;6126858;29;20031;-83
2021/04/27 08:37:28;;;;;;;21.40;7.72;;;20.70;57.30;;;;;;6116508;29;20044;-84
2021/04/27 08:40:32;;;;;;;22.80;8.05;;;20.80;56.70;;;;;;6095425;29;20035;-86
2021/04/27 08:43:34;;;;;;;17.92;7.03;;;20.80;56.60;;;;;;6104063;29;20103;-86
2021/04/27 08:46:36;;;;;;;17.77;7.30;;;20.80;56.30;;;;;;6131454;29;20043;-84
2021/04/27 08:49:38;;;;;;;12.80;6.32;;;20.80;56.10;;;;;;6117539;29;20140;-85
2021/04/27 08:52:39;;;;;;;16.95;6.57;;;20.90;56.20;;;;;;6126170;29;20107;-85
2021/04/27 08:55:41;;;;;;;18.27;7.60;;;20.90;55.60;;;;;;6109893;29;20116;-84
2021/04/27 08:58:44;;;;;;;23.13;9.55;;;20.90;55.20;;;;;;6170459;28;20098;-87
2021/04/27 09:01:46;;;;;;;16.88;9.10;;;20.90;55.10;;;;;;6140742;29;20092;-88
2021/04/27 09:04:49;;;;;;;17.75;8.45;;;20.90;55.20;;;;;;6155135;28;20374;-86
2021/04/27 09:07:52;;;;;;;20.15;9.35;;;21.00;55.10;;;;;;6155048;29;20459;-87
2021/04/27 09:10:57;;;;;;;12.90;6.88;;;21.20;54.90;;;;;;6148834;28;20030;-81
2021/04/27 09:14:07;;;;;;;13.05;7.22;;;21.30;54.20;;;;;;6155584;28;20125;-82
2021/04/27 09:17:12;;;;;;;14.15;7.20;;;21.40;53.70;;;;;;6152757;29;20031;-81
2021/04/27 09:20:13;;;;;;;13.50;6.72;;;21.60;53.70;;;;;;6135429;29;20043;-82
2021/04/27 09:23:35;;;;;;;22.10;11.35;;;22.00;52.70;;;;;;6135946;29;20114;-81
2021/04/27 09:26:36;;;;;;;23.10;9.23;;;22.00;52.10;;;;;;6118324;29;20490;-80
2021/04/27 09:29:41;;;;;;;12.25;6.85;;;22.20;51.20;;;;;;6133251;29;20046;-82
2021/04/27 09:32:44;;;;;;;16.05;6.13;;;22.40;50.90;;;;;;6136107;29;20077;-81
2021/04/27 09:35:50;;;;;;;20.98;5.85;;;22.50;50.10;;;;;;6153635;28;20031;-83
2021/04/27 09:38:54;;;;;;;12.10;6.53;;;22.60;48.40;;;;;;6159101;29;20035;-82
2021/04/27 09:42:07;;;;;;;17.63;6.57;;;22.70;47.70;;;;;;6144219;29;20426;-84
2021/04/27 09:45:09;;;;;;;14.65;6.78;;;22.70;47.40;;;;;;6157217;29;20027;-82
2021/04/27 09:48:12;;;;;;;18.15;6.57;;;22.90;47.40;;;;;;6141160;29;20035;-82
2021/04/27 09:51:13;;;;;;;11.20;5.82;;;22.90;46.50;;;;;;6156644;29;20027;-82
2021/04/27 09:54:14;;;;;;;23.35;6.45;;;22.90;46.70;;;;;;6125151;29;20032;-82
2021/04/27 09:57:31;;;;;;;17.08;7.18;;;23.00;46.50;;;;;;6140201;29;20046;-82
2021/04/27 10:00:39;;;;;;;20.42;6.07;;;23.00;46.20;;;;;;6124378;29;20043;-81
2021/04/27 10:03:40;;;;;;;11.60;5.78;;;23.10;46.30;;;;;;6157723;29;20031;-83
2021/04/27 10:06:46;;;;;;;12.65;6.47;;;23.20;46.30;;;;;;6140766;29;20133;-82
2021/04/27 10:14:11;;;;;;;11.18;6.35;;;23.20;46.10;;;;;;6161805;29;20209;-83
2021/04/27 10:17:17;;;;;;;12.57;6.15;;;23.20;46.00;;;;;;6139849;29;20049;-83
2021/04/27 10:20:18;;;;;;;15.27;6.63;;;23.20;46.10;;;;;;6139237;29;20378;-82
2021/04/27 10:23:21;;;;;;;15.20;6.07;;;23.20;46.00;;;;;;6149794;28;20407;-82
2021/04/27 10:26:25;;;;;;;9.52;4.75;;;23.10;45.90;;;;;;6155940;28;20109;-83
2021/04/27 10:29:27;;;;;;;12.75;4.88;;;23.10;46.10;;;;;;6158253;29;20069;-83
2021/04/27 10:32:29;;;;;;;7.60;4.57;;;23.10;46.50;;;;;;6142678;28;20055;-84
2021/04/27 10:35:32;;;;;;;12.77;5.15;;;23.10;45.60;;;;;;6137035;29;20027;-83
2021/04/27 10:38:53;;;;;;;9.40;4.93;;;23.00;45.40;;;;;;6157696;29;20043;-85
2021/04/27 10:41:57;;;;;;;10.18;4.55;;;22.80;45.50;;;;;;6139289;28;20039;-83
2021/04/27 10:45:08;;;;;;;8.02;4.43;;;22.70;45.70;;;;;;6158053;28;20031;-84
2021/04/27 10:48:31;;;;;;;9.90;4.95;;;22.60;45.80;;;;;;6142611;28;20063;-84
2021/04/27 10:51:46;;;;;;;13.95;5.40;;;22.80;45.90;;;;;;6149780;28;20023;-85
2021/04/27 10:55:10;;;;;;;11.68;5.35;;;22.80;45.60;;;;;;6172978;28;20030;-84
2021/04/27 10:58:11;;;;;;;8.63;4.60;;;22.90;45.50;;;;;;6110476;29;20389;-86
2021/04/27 11:01:30;;;;;;;13.98;4.88;;;23.00;45.30;;;;;;6109724;29;20028;-83
2021/04/27 11:04:45;;;;;;;7.53;4.55;;;23.10;44.90;;;;;;6108805;29;20036;-87
2021/04/27 11:07:47;;;;;;;12.20;4.78;;;23.20;44.60;;;;;;6108887;29;20040;-85
2021/04/27 11:10:53;;;;;;;8.18;4.80;;;23.30;44.30;;;;;;6113841;29;20024;-85
2021/04/27 11:14:20;;;;;;;13.23;5.10;;;23.40;44.20;;;;;;6128241;29;20032;-84
2021/04/27 11:17:36;;;;;;;11.57;5.10;;;23.40;43.90;;;;;;6122062;29;20036;-83
2021/04/27 11:20:43;;;;;;;9.82;4.43;;;23.50;43.80;;;;;;6125771;29;20470;-84
2021/04/27 11:23:56;;;;;;;10.57;4.63;;;23.60;43.50;;;;;;6114229;29;20024;-85
2021/04/27 11:26:57;;;;;;;11.30;5.47;;;23.60;43.20;;;;;;6130192;29;20024;-86
2021/04/27 11:30:10;;;;;;;12.93;5.72;;;23.70;43.00;;;;;;6112479;29;20367;-85
2021/04/27 11:33:12;;;;;;;13.50;4.88;;;23.80;43.00;;;;;;6109911;29;20028;-83
2021/04/27 11:36:14;;;;;;;9.23;5.57;;;23.80;42.60;;;;;;6108100;29;20424;-84
2021/04/27 11:39:20;;;;;;;10.88;5.82;;;24.00;42.50;;;;;;6107074;29;20143;-83
2021/04/27 11:42:31;;;;;;;13.98;5.40;;;24.20;42.20;;;;;;6108926;29;20028;-84
2021/04/27 11:45:43;;;;;;;8.82;5.00;;;24.30;42.00;;;;;;6106584;29;20122;-84
2021/04/27 11:48:53;;;;;;;11.20;5.07;;;24.40;41.70;;;;;;6108144;29;20040;-84
2021/04/27 11:51:57;;;;;;;14.57;5.45;;;24.60;41.40;;;;;;6092078;29;20032;-79
2021/04/27 11:54:58;;;;;;;11.50;5.28;;;24.70;41.00;;;;;;6108025;29;20399;-81
2021/04/27 11:58:23;;;;;;;13.10;5.28;;;24.90;40.70;;;;;;6130442;28;20084;-80
2021/04/27 12:01:24;;;;;;;8.25;4.85;;;25.10;40.30;;;;;;6122974;29;20039;-81
2021/04/27 12:04:26;;;;;;;14.27;4.93;;;25.40;40.00;;;;;;6129131;29;20043;-80
2021/04/27 12:07:29;;;;;;;7.88;4.50;;;25.80;39.40;;;;;;6128840;29;20048;-80
2021/04/27 12:10:30;;;;;;;16.50;5.32;;;26.10;38.30;;;;;;6117836;29;20055;-81
2021/04/27 12:13:32;;;;;;;9.55;5.40;;;26.30;37.70;;;;;;6108364;29;20363;-81
2021/04/27 12:16:37;;;;;;;10.95;5.03;;;26.50;37.50;;;;;;6108271;29;20059;-80
2021/04/27 12:19:38;;;;;;;6.82;4.55;;;26.60;37.30;;;;;;6105797;29;20123;-79
2021/04/27 12:22:45;;;;;;;14.05;5.32;;;26.60;37.30;;;;;;6105935;29;20054;-79
2021/04/27 12:25:46;;;;;;;8.23;4.55;;;26.70;37.00;;;;;;6106426;29;20039;-80
2021/04/27 12:28:48;;;;;;;8.85;4.80;;;27.00;36.60;;;;;;6091132;29;20032;-81
2021/04/27 12:31:49;;;;;;;8.02;4.75;;;27.20;36.10;;;;;;6106966;29;20393;-80
2021/04/27 12:35:17;;;;;;;8.63;4.80;;;27.40;35.70;;;;;;6107400;29;20020;-79
2021/04/27 12:38:18;;;;;;;16.73;6.30;;;27.90;35.20;;;;;;6105633;29;20043;-80
2021/04/27 12:41:19;;;;;;;7.75;4.60;;;28.40;34.40;;;;;;6107447;29;20043;-80
2021/04/27 12:44:31;;;;;;;9.88;4.90;;;28.70;33.80;;;;;;6110509;29;20039;-80
2021/04/27 12:47:35;;;;;;;9.68;4.63;;;29.20;32.90;;;;;;6142316;29;20036;-80
2021/04/27 12:50:51;;;;;;;10.85;4.68;;;29.60;32.20;;;;;;6116286;29;20032;-81
2021/04/27 12:53:52;;;;;;;10.18;4.30;;;30.00;31.40;;;;;;6101416;29;20115;-80
2021/04/27 12:57:16;;;;;;;9.75;4.97;;;30.20;31.10;;;;;;6132954;29;20119;-79
2021/04/27 13:00:19;;;;;;;15.93;5.28;;;30.50;30.30;;;;;;6123910;29;20031;-80
2021/04/27 13:03:22;;;;;;;7.95;4.90;;;30.50;30.00;;;;;;6153463;29;20496;-80
2021/04/27 13:06:36;;;;;;;10.70;4.60;;;30.20;29.70;;;;;;6153307;29;20075;-81
2021/04/27 13:09:37;;;;;;;8.88;4.22;;;29.90;30.00;;;;;;6153996;28;20043;-80
2021/04/27 13:12:40;;;;;;;97.63;10.40;;;29.60;30.30;;;;;;6121263;29;20126;-80
2021/04/27 13:15:44;;;;;;;39.38;6.50;;;29.20;30.90;;;;;;6139856;29;20386;-80
2021/04/27 13:19:00;;;;;;;13.18;4.88;;;28.90;31.50;;;;;;6146814;28;20407;-80
2021/04/27 13:22:17;;;;;;;5.95;3.83;;;28.60;32.00;;;;;;6141048;29;20110;-80
2021/04/27 13:25:23;;;;;;;21.67;5.32;;;28.30;32.30;;;;;;6134586;29;20455;-80
2021/04/27 13:28:29;;;;;;;70.38;10.48;;;28.00;32.60;;;;;;6156991;29;20023;-81
2021/04/27 13:31:31;;;;;;;11.18;4.28;;;27.90;32.90;;;;;;6138633;29;20023;-81
2021/04/27 13:34:32;;;;;;;10.60;4.72;;;27.90;32.90;;;;;;6140631;29;20414;-81
2021/04/27 13:37:33;;;;;;;58.17;7.47;;;27.80;32.90;;;;;;6140278;29;20031;-79
2021/04/27 13:40:36;;;;;;;14.07;4.13;;;27.70;33.20;;;;;;6140838;29;20371;-81
2021/04/27 13:43:40;;;;;;;13.45;4.25;;;27.60;33.20;;;;;;6156018;29;20118;-80
2021/04/27 13:46:41;;;;;;;9.77;4.30;;;27.60;33.10;;;;;;6139711;29;20065;-80
2021/04/27 13:49:42;;;;;;;9.98;4.40;;;27.70;33.10;;;;;;6156527;29;20038;-80
2021/04/27 13:52:43;;;;;;;19.33;4.70;;;27.80;32.90;;;;;;6140469;29;20031;-80
2021/04/27 13:55:45;;;;;;;23.88;4.57;;;28.00;32.50;;;;;;6139617;29;20039;-80
2021/04/27 13:58:46;;;;;;;17.88;10.18;;;28.20;32.10;;;;;;6124140;29;20053;-79
2021/04/27 14:01:47;;;;;;;126.50;15.05;;;28.60;31.40;;;;;;6141410;29;20035;-80
2021/04/27 14:04:48;;;;;;;16.90;4.65;;;28.80;31.00;;;;;;6140481;29;20347;-79
2021/04/27 14:07:50;;;;;;;12.07;4.32;;;29.00;31.00;;;;;;6156041;29;20099;-78
2021/04/27 14:10:52;;;;;;;37.35;5.53;;;29.40;30.40;;;;;;6143791;29;20055;-79
2021/04/27 14:13:56;;;;;;;57.47;7.25;;;29.60;30.00;;;;;;6144763;29;20027;-78
2021/04/27 14:16:57;;;;;;;8.27;3.60;;;29.60;30.10;;;;;;6144419;29;20046;-79
2021/04/27 14:19:59;;;;;;;99.30;9.82;;;29.60;30.00;;;;;;6144597;29;20054;-81
2021/04/27 14:23:03;;;;;;;6.85;3.85;;;29.60;30.00;;;;;;6157268;28;20099;-81
2021/04/27 14:26:04;;;;;;;7.57;3.30;;;29.60;29.80;;;;;;6141182;29;20039;-81
2021/04/27 14:29:07;;;;;;;47.08;5.85;;;29.30;30.00;;;;;;6140331;29;20027;-79
2021/04/27 14:32:09;;;;;;;8.02;3.50;;;29.00;30.10;;;;;;6140613;29;20089;-80
2021/04/27 14:35:13;;;;;;;6.78;3.47;;;28.60;30.30;;;;;;6140298;29;20118;-80
2021/04/27 14:38:14;;;;;;;14.25;4.68;;;28.20;30.90;;;;;;6156402;29;20521;-81
2021/04/27 14:41:17;;;;;;;9.50;3.53;;;27.90;31.30;;;;;;6140262;29;20043;-82
2021/04/27 14:44:18;;;;;;;18.50;4.47;;;27.60;31.60;;;;;;6120898;29;20027;-82
2021/04/27 14:47:19;;;;;;;15.50;5.25;;;27.30;31.80;;;;;;6155342;29;20065;-82
2021/04/27 14:50:27;;;;;;;9.18;3.45;;;27.20;32.10;;;;;;6156694;29;20027;-81
2021/04/27 14:53:28;;;;;;;5.43;3.15;;;27.10;32.10;;;;;;6139565;29;20031;-81
2021/04/27 14:56:29;;;;;;;12.63;4.10;;;27.00;32.20;;;;;;6155433;29;20415;-81
2021/04/27 14:59:30;;;;;;;9.27;3.15;;;26.90;32.40;;;;;;6154790;29;20411;-81
2021/04/27 15:02:33;;;;;;;76.72;6.90;;;26.90;32.50;;;;;;6139251;29;20031;-80
2021/04/27 15:05:35;;;;;;;68.07;7.13;;;26.70;32.60;;;;;;6139290;29;20359;-81
2021/04/27 15:08:37;;;;;;;7.63;3.40;;;26.50;32.80;;;;;;6138590;29;20058;-80
2021/04/27 15:11:39;;;;;;;17.88;4.68;;;26.40;33.00;;;;;;6138735;29;20089;-82
2021/04/27 15:14:40;;;;;;;22.40;4.45;;;26.30;33.30;;;;;;6154727;29;20031;-83
2021/04/27 15:17:41;;;;;;;22.25;4.65;;;26.20;33.50;;;;;;6139891;29;20400;-82
2021/04/27 15:20:42;;;;;;;19.80;4.15;;;26.10;33.80;;;;;;6142995;29;20061;-82
2021/04/27 15:23:44;;;;;;;18.35;3.78;;;26.10;33.90;;;;;;6123436;29;20038;-79
2021/04/27 15:26:47;;;;;;;31.15;4.70;;;26.00;34.00;;;;;;6138425;29;20039;-81
2021/04/27 15:29:49;;;;;;;14.18;3.42;;;26.00;34.10;;;;;;6139364;29;20395;-83
2021/04/27 15:32:50;;;;;;;14.43;3.67;;;26.10;34.20;;;;;;6138950;29;20311;-86
2021/04/27 15:35:51;;;;;;;9.63;3.80;;;26.10;34.20;;;;;;6139167;29;20027;-86
2021/04/27 15:38:52;;;;;;;7.85;3.97;;;26.10;34.10;;;;;;6139313;29;20362;-85
2021/04/27 15:41:55;;;;;;;40.90;4.85;;;26.20;34.10;;;;;;6139624;29;20031;-86
2021/04/27 15:44:56;;;;;;;9.48;3.70;;;26.20;34.00;;;;;;6139242;29;20114;-86
2021/04/27 15:47:57;;;;;;;36.28;7.38;;;26.30;33.90;;;;;;6139634;29;20157;-88
2021/04/27 15:51:02;;;;;;;60.17;9.18;;;26.30;33.80;;;;;;6141159;29;20050;-86
2021/04/27 15:54:04;;;;;;;18.65;5.60;;;26.30;33.80;;;;;;6142359;29;20122;-86
2021/04/27 15:57:06;;;;;;;74.80;9.23;;;26.30;33.80;;;;;;6158512;29;20047;-87
2021/04/27 16:00:09;;;;;;;22.15;4.00;;;26.20;33.90;;;;;;6140351;29;20035;-88
2021/04/27 16:03:11;;;;;;;8.30;3.00;;;26.10;34.10;;;;;;6140675;29;20425;-87
2021/04/27 16:06:12;;;;;;;5.35;3.20;;;26.00;34.20;;;;;;6140614;29;20354;-85